Time;durP1;ratioP1;P1;durP2;ratioP2;P2;SDS_P1;SDS_P2;PMS_P1;PMS_P2;Temp;Humidity;BMP_temperature;BMP_pressure;BME280_temperature;BME280_humidity;BME280_pressure;Samples;Min_cycle;Max_cycle;Signal;HPM_P1;HPM_P2
2023/10/06 00:01:42;;;;;;;17.65;7.68;;;;;;;11.22;nan;101357.06;4950257;28;20039;-72
2023/10/06 00:04:13;;;;;;;17.13;7.65;;;;;;;11.04;nan;101337.41;4952685;28;20034;-72
2023/10/06 00:06:41;;;;;;;20.25;7.88;;;;;;;11.14;nan;101352.00;4958008;28;20445;-72
2023/10/06 00:09:08;;;;;;;18.35;8.13;;;;;;;11.07;nan;101359.91;4950428;28;20613;-71
2023/10/06 00:11:37;;;;;;;18.17;7.05;;;;;;;10.98;nan;101342.69;4953028;28;20027;-72
2023/10/06 00:14:07;;;;;;;24.45;8.35;;;;;;;11.04;nan;101355.06;4949673;28;20144;-73
2023/10/06 00:16:39;;;;;;;15.73;7.88;;;;;;;11.08;nan;101361.53;4964771;28;20034;-72
2023/10/06 00:21:53;;;;;;;18.73;7.10;;;;;;;11.03;nan;101375.31;4952306;28;21035;-70
2023/10/06 00:24:25;;;;;;;14.73;7.45;;;;;;;10.98;nan;101375.13;4951578;28;20058;-71
2023/10/06 00:26:51;;;;;;;17.38;7.53;;;;;;;10.87;nan;101359.94;4951038;28;20035;-71
2023/10/06 00:29:21;;;;;;;18.30;7.25;;;;;;;10.84;nan;101362.97;4952435;28;20039;-69
2023/10/06 00:31:47;;;;;;;;;;;;;;;10.88;nan;101377.34;4952845;28;20027;-70
2023/10/06 00:34:19;;;;;;;18.00;6.80;;;;;;;10.70;nan;101351.59;4951208;28;19926;-70
2023/10/06 00:36:55;;;;;;;13.30;6.78;;;;;;;10.72;nan;101369.84;4949524;29;20023;-70
2023/10/06 00:39:24;;;;;;;16.42;6.90;;;;;;;10.68;nan;101365.97;4951474;28;20020;-70
2023/10/06 00:42:02;;;;;;;14.30;7.10;;;;;;;10.65;nan;101369.84;4951404;28;20082;-71
2023/10/06 00:44:29;;;;;;;19.52;7.70;;;;;;;10.68;nan;101372.09;4951334;28;20513;-69
2023/10/06 00:46:58;;;;;;;22.95;7.53;;;;;;;10.69;nan;101372.91;4953183;28;20038;-70
2023/10/06 00:49:25;;;;;;;19.63;7.07;;;;;;;10.68;nan;101379.16;4950475;28;20019;-72
2023/10/06 00:51:53;;;;;;;16.98;7.32;;;;;;;10.62;nan;101372.88;4951610;28;20090;-70
2023/10/06 00:54:19;;;;;;;15.07;6.65;;;;;;;10.61;nan;101377.34;4948346;28;20047;-71
2023/10/06 00:56:49;;;;;;;15.65;6.93;;;;;;;10.56;nan;101366.59;4952069;28;20058;-72
2023/10/06 00:59:17;;;;;;;18.15;6.93;;;;;;;10.48;nan;101358.06;4943255;28;20030;-70
2023/10/06 01:01:43;;;;;;;20.83;6.78;;;;;;;10.49;nan;101359.72;4950940;28;20130;-72
2023/10/06 01:04:08;;;;;;;16.90;6.68;;;;;;;10.56;nan;101371.88;4949462;28;20545;-72
2023/10/06 01:06:41;;;;;;;23.35;7.47;;;;;;;10.61;nan;101377.34;4951322;28;20085;-71
2023/10/06 01:11:40;;;;;;;10.85;6.68;;;;;;;10.61;nan;101379.16;4949839;28;20105;-71
2023/10/06 01:14:07;;;;;;;15.05;6.60;;;;;;;10.49;nan;101365.78;4949395;28;20070;-71
2023/10/06 01:16:35;;;;;;;13.88;6.45;;;;;;;10.48;nan;101360.72;4948624;28;20078;-73
2023/10/06 01:19:14;;;;;;;17.02;6.63;;;;;;;10.58;nan;101376.91;4948760;28;20042;-71
2023/10/06 01:21:47;;;;;;;19.45;6.47;;;;;;;10.51;nan;101362.94;4950351;28;20429;-72
2023/10/06 01:24:15;;;;;;;13.48;6.75;;;;;;;10.50;nan;101356.84;4949595;28;20718;-71
2023/10/06 01:26:41;;;;;;;18.60;6.47;;;;;;;10.56;nan;101374.50;4950978;28;20076;-72
2023/10/06 01:29:13;;;;;;;17.63;6.97;;;;;;;10.51;nan;101368.19;4950193;28;20027;-71
2023/10/06 01:31:41;;;;;;;14.45;6.80;;;;;;;10.42;nan;101357.06;4965937;28;20179;-72
2023/10/06 01:34:08;;;;;;;12.75;5.70;;;;;;;10.34;nan;101351.97;4950868;28;20039;-72
2023/10/06 01:36:35;;;;;;;14.27;6.00;;;;;;;10.40;nan;101357.25;4950808;28;20027;-71
2023/10/06 01:39:05;;;;;;;14.90;5.95;;;;;;;10.41;nan;101364.16;4950044;28;20485;-71
2023/10/06 01:41:34;;;;;;;21.63;6.28;;;;;;;10.30;nan;101342.88;4965574;28;20058;-72
2023/10/06 01:44:10;;;;;;;;;;;;;;;10.39;nan;101358.28;4953777;28;20039;-72
2023/10/06 01:46:39;;;;;;;20.50;6.80;;;;;;;10.33;nan;101356.44;4949122;28;19914;-72
2023/10/06 01:49:10;;;;;;;17.88;7.18;;;;;;;10.23;nan;101348.88;4951803;28;20682;-70
2023/10/06 01:51:38;;;;;;;20.75;7.97;;;;;;;10.19;nan;101344.22;4951280;28;20054;-71
2023/10/06 01:54:07;;;;;;;18.67;7.35;;;;;;;10.07;nan;101336.09;4949917;28;20524;-71
2023/10/06 01:56:35;;;;;;;15.43;6.97;;;;;;;10.17;nan;101357.56;4951099;28;20121;-72
2023/10/06 01:59:01;;;;;;;17.92;7.60;;;;;;;10.12;nan;101348.66;4951012;28;20473;-72
2023/10/06 02:01:27;;;;;;;17.65;7.90;;;;;;;10.17;nan;101352.28;4949342;28;20023;-71
2023/10/06 02:03:52;;;;;;;19.15;7.68;;;;;;;10.11;nan;101350.47;4950233;28;20051;-71
2023/10/06 02:06:18;;;;;;;19.20;7.60;;;;;;;10.12;nan;101359.19;4950243;28;20644;-72
2023/10/06 02:08:49;;;;;;;17.58;7.88;;;;;;;10.15;nan;101374.56;4948724;28;20027;-71
2023/10/06 02:11:15;;;;;;;19.50;7.80;;;;;;;10.02;nan;101341.94;4949714;28;20481;-73
2023/10/06 02:13:40;;;;;;;16.02;7.35;;;;;;;10.16;nan;101366.47;4948434;28;20129;-73
2023/10/06 02:16:06;;;;;;;14.05;6.53;;;;;;;10.10;nan;101351.47;4950736;28;20023;-70
2023/10/06 02:18:36;;;;;;;17.45;6.40;;;;;;;10.14;nan;101355.34;4947575;28;20077;-72
2023/10/06 02:21:09;;;;;;;17.90;7.28;;;;;;;10.19;nan;101366.06;4950505;28;20122;-71
2023/10/06 02:23:37;;;;;;;16.10;7.68;;;;;;;10.20;nan;101366.91;4951341;28;20030;-72
2023/10/06 02:26:13;;;;;;;14.43;6.88;;;;;;;10.22;nan;101368.31;4952794;28;20023;-72
2023/10/06 02:28:43;;;;;;;17.30;7.75;;;;;;;10.27;nan;101367.75;4949233;28;20038;-72
2023/10/06 02:31:10;;;;;;;16.05;7.28;;;;;;;10.27;nan;101369.53;4945637;28;20035;-72
2023/10/06 02:33:39;;;;;;;20.13;8.40;;;;;;;10.28;nan;101372.00;4948482;28;20489;-72
2023/10/06 02:36:17;;;;;;;15.98;7.82;;;;;;;10.22;nan;101364.88;4947893;28;20094;-72
2023/10/06 02:38:46;;;;;;;17.05;7.65;;;;;;;10.21;nan;101364.06;4947679;28;20107;-72
2023/10/06 02:41:29;;;;;;;16.17;7.10;;;;;;;10.14;nan;101359.78;4949397;28;20110;-73
2023/10/06 02:44:05;;;;;;;14.30;6.70;;;;;;;10.11;nan;101368.91;4951023;28;20133;-71
2023/10/06 02:46:31;;;;;;;19.98;7.15;;;;;;;10.01;nan;101352.69;4946215;28;20035;-72
2023/10/06 02:48:57;;;;;;;17.17;6.88;;;;;;;9.99;nan;101362.59;4948264;28;20399;-72
2023/10/06 02:51:32;;;;;;;16.63;6.85;;;;;;;10.02;nan;101362.97;4947526;28;20037;-71
2023/10/06 02:56:39;;;;;;;17.23;7.47;;;;;;;9.84;nan;101344.31;4949848;28;20139;-72
2023/10/06 02:59:20;;;;;;;15.63;7.40;;;;;;;9.84;nan;101351.38;4948563;28;20094;-72
2023/10/06 03:01:57;;;;;;;20.85;7.28;;;;;;;9.71;nan;101331.91;4951347;28;20046;-72
2023/10/06 03:04:29;;;;;;;15.38;6.88;;;;;;;9.80;nan;101350.97;4964108;28;20058;-73
2023/10/06 03:06:57;;;;;;;18.67;7.13;;;;;;;9.65;nan;101331.88;4950339;28;20501;-73
2023/10/06 03:09:38;;;;;;;21.33;7.60;;;;;;;9.70;nan;101355.78;4949332;28;20667;-73
2023/10/06 03:14:53;;;;;;;16.27;7.10;;;;;;;9.64;nan;101365.25;4946052;28;20024;-71
2023/10/06 03:17:20;;;;;;;16.80;7.00;;;;;;;9.61;nan;101373.53;4948271;28;20027;-73
2023/10/06 03:19:56;;;;;;;24.30;7.35;;;;;;;9.60;nan;101369.31;4949475;28;20054;-71
2023/10/06 03:22:25;;;;;;;23.52;8.90;;;;;;;9.37;nan;101338.81;4949682;28;20031;-71
2023/10/06 03:24:53;;;;;;;19.38;7.75;;;;;;;9.54;nan;101370.06;4949794;28;20074;-71
2023/10/06 03:27:22;;;;;;;19.77;7.95;;;;;;;9.49;nan;101370.63;4947317;28;20019;-72
2023/10/06 03:29:53;;;;;;;15.75;7.70;;;;;;;9.50;nan;101379.34;4945644;28;20462;-73
2023/10/06 03:32:32;;;;;;;17.95;7.50;;;;;;;9.42;nan;101380.31;4949117;28;20027;-73
2023/10/06 03:38:08;;;;;;;16.95;8.10;;;;;;;9.29;nan;101383.66;4950445;28;20082;-70
2023/10/06 03:40:44;;;;;;;20.48;8.27;;;;;;;9.28;nan;101384.66;4948078;28;20499;-70
2023/10/06 03:43:13;;;;;;;22.60;8.23;;;;;;;9.22;nan;101380.19;4949940;28;20027;-69
2023/10/06 03:45:45;;;;;;;20.53;8.23;;;;;;;9.11;nan;101362.31;4949330;28;20592;-70
2023/10/06 03:50:44;;;;;;;16.48;7.68;;;;;;;9.27;nan;101377.78;4950226;28;20031;-69
2023/10/06 03:53:11;;;;;;;17.00;7.63;;;;;;;9.31;nan;101375.56;4948290;28;20053;-70
2023/10/06 03:55:42;;;;;;;16.20;8.35;;;;;;;9.34;nan;101390.97;4948962;28;20502;-68
2023/10/06 03:58:10;;;;;;;20.25;8.25;;;;;;;9.31;nan;101389.56;4949654;28;20045;-69
2023/10/06 04:00:40;;;;;;;19.80;7.10;;;;;;;9.33;nan;101397.22;4947297;28;20027;-69
2023/10/06 04:03:09;;;;;;;24.92;8.02;;;;;;;9.15;nan;101368.81;4951716;28;20082;-70
2023/10/06 04:05:37;;;;;;;16.92;7.95;;;;;;;9.34;nan;101394.41;4950170;28;20022;-69
2023/10/06 04:08:08;;;;;;;25.20;7.70;;;;;;;9.22;nan;101376.72;4948821;28;20027;-70
2023/10/06 04:10:36;;;;;;;18.83;7.57;;;;;;;9.15;nan;101374.06;4948917;28;20027;-70
2023/10/06 04:13:08;;;;;;;24.95;7.95;;;;;;;9.34;nan;101397.03;4948598;28;20409;-71
2023/10/06 04:15:38;;;;;;;21.38;7.28;;;;;;;9.37;nan;101395.84;4948702;28;20035;-69
2023/10/06 04:18:10;;;;;;;20.00;7.00;;;;;;;9.20;nan;101360.34;4937263;28;20019;-70
2023/10/06 04:20:42;;;;;;;17.25;7.80;;;;;;;9.41;nan;101394.47;4948458;28;20376;-69
2023/10/06 04:23:11;;;;;;;16.90;7.90;;;;;;;9.42;nan;101393.44;4949401;28;20059;-68
2023/10/06 04:25:37;;;;;;;17.73;7.85;;;;;;;9.25;nan;101371.91;4950617;28;20082;-71
2023/10/06 04:28:13;;;;;;;17.35;7.25;;;;;;;9.37;nan;101382.69;4950351;28;20034;-70
2023/10/06 04:30:42;;;;;;;22.42;7.82;;;;;;;9.44;nan;101385.38;4945181;28;21862;-69
2023/10/06 04:33:11;;;;;;;22.65;9.05;;;;;;;9.47;nan;101390.25;4951058;28;20027;-70
2023/10/06 04:36:11;;;;;;;;;;;;;;;9.45;nan;101398.31;4951850;28;20126;-69
2023/10/06 04:38:38;;;;;;;21.38;7.25;;;;;;;9.41;nan;101394.47;4948773;28;19918;-69
2023/10/06 04:41:08;;;;;;;23.88;8.20;;;;;;;9.45;nan;101403.56;4941363;28;20050;-70
2023/10/06 04:43:44;;;;;;;25.02;7.68;;;;;;;9.42;nan;101398.72;4952992;28;20023;-70
2023/10/06 04:46:10;;;;;;;17.85;7.82;;;;;;;9.37;nan;101388.75;4948495;28;20118;-70
2023/10/06 04:48:35;;;;;;;28.30;8.25;;;;;;;9.45;nan;101400.94;4950133;28;20434;-69
2023/10/06 04:51:03;;;;;;;15.25;7.70;;;;;;;9.45;nan;101400.13;4952249;28;20035;-71
2023/10/06 04:53:29;;;;;;;21.38;8.32;;;;;;;9.35;nan;101385.50;4951380;28;20110;-70
2023/10/06 04:55:54;;;;;;;17.88;7.95;;;;;;;9.46;nan;101399.97;4952528;28;20332;-70
2023/10/06 04:58:19;;;;;;;28.90;8.40;;;;;;;9.49;nan;101409.28;4951479;28;20450;-71
2023/10/06 05:00:53;;;;;;;20.52;7.88;;;;;;;9.46;nan;101399.16;4951934;28;20038;-69
2023/10/06 05:03:19;;;;;;;20.40;7.32;;;;;;;9.46;nan;101402.59;4949859;28;20039;-70
2023/10/06 05:05:44;;;;;;;20.60;8.15;;;;;;;9.25;nan;101373.72;4950367;28;20552;-70
2023/10/06 05:08:14;;;;;;;24.98;8.20;;;;;;;9.53;nan;101429.72;4950881;28;20146;-74
2023/10/06 05:10:39;;;;;;;18.88;7.88;;;;;;;9.46;nan;101413.09;4949433;28;20398;-73
2023/10/06 05:13:06;;;;;;;21.42;8.70;;;;;;;9.53;nan;101418.41;4952230;28;20027;-73
2023/10/06 05:15:33;;;;;;;16.02;8.00;;;;;;;9.46;nan;101407.03;4953758;28;20766;-73
2023/10/06 05:18:00;;;;;;;18.48;8.18;;;;;;;9.49;nan;101411.91;4952044;28;20089;-72
2023/10/06 05:20:29;;;;;;;22.00;8.27;;;;;;;9.45;nan;101415.91;4950258;28;20110;-72
2023/10/06 05:23:05;;;;;;;19.08;8.43;;;;;;;9.52;nan;101427.28;4949102;28;20109;-71
2023/10/06 05:25:32;;;;;;;22.38;8.77;;;;;;;9.49;nan;101423.22;4952095;28;20098;-73
2023/10/06 05:28:01;;;;;;;20.42;9.07;;;;;;;9.58;nan;101451.00;4946414;28;20023;-75
2023/10/06 05:30:27;;;;;;;25.90;8.88;;;;;;;9.49;nan;101438.19;4948758;28;20027;-72
2023/10/06 05:32:57;;;;;;;22.63;8.90;;;;;;;9.54;nan;101443.69;4951570;28;20047;-72
2023/10/06 05:35:23;;;;;;;24.98;8.73;;;;;;;9.43;nan;101421.34;4950356;28;20027;-72
2023/10/06 05:37:48;;;;;;;20.45;9.07;;;;;;;9.58;nan;101445.75;4950986;28;20508;-72
2023/10/06 05:40:16;;;;;;;22.25;8.15;;;;;;;9.63;nan;101454.88;4946864;28;20027;-73
2023/10/06 05:42:49;;;;;;;21.95;9.02;;;;;;;9.52;nan;101438.59;4948259;28;20035;-73
2023/10/06 05:45:21;;;;;;;24.42;9.27;;;;;;;9.65;nan;101466.81;4951481;28;20023;-73
2023/10/06 05:47:48;;;;;;;21.35;8.73;;;;;;;9.56;nan;101447.75;4964450;28;20038;-73
2023/10/06 05:50:29;;;;;;;32.70;10.07;;;;;;;9.61;nan;101457.69;4948096;28;20082;-73
2023/10/06 05:53:07;;;;;;;29.23;10.82;;;;;;;9.64;nan;101452.03;4963170;28;20047;-71
2023/10/06 05:55:37;;;;;;;26.67;9.90;;;;;;;9.76;nan;101476.00;4953045;28;20023;-74
2023/10/06 05:58:05;;;;;;;27.95;9.90;;;;;;;9.70;nan;101469.69;4948354;28;20034;-74
2023/10/06 06:00:33;;;;;;;31.15;10.27;;;;;;;9.73;nan;101473.75;4949523;28;20030;-68
2023/10/06 06:03:10;;;;;;;25.02;10.60;;;;;;;9.81;nan;101486.75;4948822;28;20038;-74
2023/10/06 06:05:40;;;;;;;27.20;10.65;;;;;;;9.72;nan;101474.75;4948213;28;20190;-69
2023/10/06 06:08:09;;;;;;;27.30;10.35;;;;;;;9.85;nan;101498.50;4962425;28;20098;-71
2023/10/06 06:10:40;;;;;;;20.92;9.68;;;;;;;9.87;nan;101493.06;4966074;28;20035;-72
2023/10/06 06:13:05;;;;;;;21.65;10.02;;;;;;;9.72;nan;101474.75;4950975;28;20023;-72
2023/10/06 06:15:31;;;;;;;18.48;9.73;;;;;;;9.80;nan;101475.41;4950651;28;20425;-72
2023/10/06 06:18:00;;;;;;;24.50;10.52;;;;;;;9.87;nan;101479.91;4949762;28;20039;-71
2023/10/06 06:20:26;;;;;;;20.95;10.85;;;;;;;9.93;nan;101485.19;4951540;28;20026;-72
2023/10/06 06:22:58;;;;;;;21.52;10.07;;;;;;;10.07;nan;101498.44;4946976;28;20039;-72
2023/10/06 06:25:26;;;;;;;26.33;10.70;;;;;;;10.09;nan;101504.31;4948075;28;20045;-71
2023/10/06 06:27:54;;;;;;;21.60;9.95;;;;;;;10.18;nan;101501.34;4949937;28;20027;-72
2023/10/06 06:30:21;;;;;;;19.27;9.05;;;;;;;10.26;nan;101507.44;4949523;28;20023;-71
2023/10/06 06:32:50;;;;;;;19.00;9.52;;;;;;;10.31;nan;101510.34;4941330;28;20059;-71
2023/10/06 06:35:21;;;;;;;23.50;10.10;;;;;;;10.31;nan;101481.38;4948744;28;20023;-69
2023/10/06 06:37:50;;;;;;;29.08;9.05;;;;;;;10.41;nan;101487.91;4950591;28;20109;-71
2023/10/06 06:40:19;;;;;;;15.52;9.00;;;;;;;10.49;nan;101492.19;4949635;28;20627;-73
2023/10/06 06:42:45;;;;;;;20.40;8.97;;;;;;;10.58;nan;101490.16;4947988;28;20567;-71
2023/10/06 06:45:13;;;;;;;30.60;9.18;;;;;;;10.69;nan;101496.69;4949108;28;20265;-71
2023/10/06 06:47:39;;;;;;;19.88;7.93;;;;;;;10.84;nan;101516.59;4947794;28;20368;-72
2023/10/06 06:50:06;;;;;;;23.88;8.80;;;;;;;10.86;nan;101501.41;4951713;28;20149;-72
2023/10/06 06:52:32;;;;;;;28.90;9.05;;;;;;;10.98;nan;101512.16;4949604;28;20055;-72
2023/10/06 06:54:58;;;;;;;31.70;9.15;;;;;;;11.00;nan;101512.78;4948389;28;20031;-73
2023/10/06 06:57:24;;;;;;;24.05;8.90;;;;;;;11.12;nan;101520.91;4948129;28;20034;-72
2023/10/06 06:59:49;;;;;;;39.95;9.13;;;;;;;11.19;nan;101527.00;4952673;28;20035;-72
2023/10/06 07:02:15;;;;;;;33.60;10.05;;;;;;;11.24;nan;101518.50;4948944;28;20090;-71
2023/10/06 07:04:44;;;;;;;19.70;9.30;;;;;;;11.42;nan;101536.34;4945096;28;20032;-70
2023/10/06 07:07:09;;;;;;;;;;;;;;;11.51;nan;101543.03;4949664;28;20031;-72
2023/10/06 07:09:35;;;;;;;21.83;8.85;;;;;;;11.38;nan;101511.41;4953644;28;19910;-73
2023/10/06 07:12:00;;;;;;;24.42;9.70;;;;;;;11.40;nan;101498.84;4950760;28;20035;-76
2023/10/06 07:14:27;;;;;;;32.53;10.57;;;;;;;;;;4949248;28;20023;-73
2023/10/06 07:16:53;;;;;;;18.95;10.68;;;;;;;11.82;nan;101541.63;4949993;28;20063;-75
2023/10/06 07:19:19;;;;;;;25.30;11.68;;;;;;;11.73;nan;101519.91;4949620;28;20019;-77
2023/10/06 07:21:44;;;;;;;24.55;9.75;;;;;;;11.92;nan;101534.13;4949264;28;20034;-76
2023/10/06 07:24:13;;;;;;;29.38;11.30;;;;;;;11.96;nan;101531.88;4948975;28;20031;-76
2023/10/06 07:26:43;;;;;;;25.77;10.18;;;;;;;12.09;nan;101534.50;4950150;28;20113;-75
2023/10/06 07:29:09;;;;;;;25.00;9.98;;;;;;;12.15;nan;101538.94;4952172;28;20019;-75
2023/10/06 07:31:34;;;;;;;24.85;9.57;;;;;;;12.33;nan;101546.19;4951884;28;20034;-74
2023/10/06 07:34:02;;;;;;;21.17;9.50;;;;;;;12.41;nan;101540.69;4949844;28;20118;-74
2023/10/06 07:36:28;;;;;;;23.75;10.68;;;;;;;12.50;nan;101539.44;4946503;28;20038;-74
2023/10/06 07:38:54;;;;;;;33.20;11.05;;;;;;;12.68;nan;101551.16;4948575;28;20031;-70
2023/10/06 07:41:20;;;;;;;22.13;11.88;;;;;;;12.74;nan;101551.13;4946357;28;20049;-73
2023/10/06 07:43:46;;;;;;;29.77;11.60;;;;;;;12.87;nan;101557.38;4946892;28;20067;-74
2023/10/06 07:46:13;;;;;;;26.90;11.38;;;;;;;12.84;nan;101529.53;4946499;28;20505;-73
2023/10/06 07:48:39;;;;;;;26.42;10.73;;;;;;;13.09;nan;101557.84;4951672;28;20032;-73
2023/10/06 07:51:08;;;;;;;33.40;12.68;;;;;;;13.15;nan;101549.88;4946399;28;20042;-74
2023/10/06 07:53:35;;;;;;;33.47;13.27;;;;;;;13.32;nan;101560.78;4946592;28;20046;-74
2023/10/06 07:56:06;;;;;;;29.88;12.38;;;;;;;13.39;nan;101553.63;4949674;28;20046;-73
2023/10/06 07:58:32;;;;;;;32.70;13.82;;;;;;;13.46;nan;101550.13;4946773;28;20494;-74
2023/10/06 08:01:02;;;;;;;41.40;15.18;;;;;;;13.65;nan;101562.38;4949451;28;20388;-73
2023/10/06 08:03:27;;;;;;;;;;;;;;;13.82;nan;101555.50;4962436;28;20034;-73
2023/10/06 08:05:52;;;;;;;38.55;14.60;;;;;;;13.74;nan;101525.84;4951104;28;19914;-73
2023/10/06 08:08:18;;;;;;;37.85;14.82;;;;;;;14.02;nan;101549.19;4947846;28;20038;-74
2023/10/06 08:10:43;;;;;;;37.58;15.43;;;;;;;14.12;nan;101557.44;4952609;28;20588;-74
2023/10/06 08:13:10;;;;;;;50.40;18.17;;;;;;;14.20;nan;101546.56;4952329;28;20126;-73
2023/10/06 08:15:40;;;;;;;26.98;12.73;;;;;;;14.47;nan;101560.31;4953625;28;20023;-72
2023/10/06 08:18:06;;;;;;;25.75;11.82;;;;;;;14.55;nan;101550.47;4947967;28;20031;-73
2023/10/06 08:20:32;;;;;;;31.45;10.98;;;;;;;14.72;nan;101555.97;4953371;28;20042;-73
2023/10/06 08:22:58;;;;;;;23.10;10.32;;;;;;;14.89;nan;101568.41;4950111;28;20033;-74
2023/10/06 08:25:24;;;;;;;19.65;9.73;;;;;;;15.06;nan;101565.91;4955507;28;20059;-74
2023/10/06 08:27:51;;;;;;;21.50;11.43;;;;;;;15.23;nan;101568.72;4952031;28;20031;-68
2023/10/06 08:30:21;;;;;;;22.92;10.13;;;;;;;15.38;nan;101563.00;4955239;28;20054;-69
2023/10/06 08:32:48;;;;;;;16.75;8.48;;;;;;;15.52;nan;101568.91;4952250;28;20055;-72
2023/10/06 08:35:14;;;;;;;19.65;8.57;;;;;;;15.62;nan;101565.69;4952446;28;20029;-71
2023/10/06 08:37:42;;;;;;;17.35;8.27;;;;;;;15.71;nan;101569.66;4952252;28;20027;-71
2023/10/06 08:40:09;;;;;;;20.33;7.38;;;;;;;15.81;nan;101571.72;4952653;28;20030;-72
2023/10/06 08:42:37;;;;;;;14.90;6.07;;;;;;;15.86;nan;101564.69;4950908;28;20045;-69
2023/10/06 08:45:03;;;;;;;19.20;6.43;;;;;;;16.00;nan;101573.22;4955535;28;20035;-71
2023/10/06 08:47:29;;;;;;;13.02;6.00;;;;;;;16.04;nan;101563.75;4953440;28;20372;-70
2023/10/06 08:49:56;;;;;;;11.45;5.72;;;;;;;16.06;nan;101569.63;4950914;28;20031;-70
2023/10/06 08:52:22;;;;;;;19.20;6.05;;;;;;;15.93;nan;101543.31;4954830;28;20537;-69
2023/10/06 08:54:48;;;;;;;14.80;6.63;;;;;;;16.27;nan;101575.38;4953248;28;20035;-69
2023/10/06 08:57:15;;;;;;;22.20;6.47;;;;;;;16.38;nan;101575.38;4954261;28;20504;-72
2023/10/06 08:59:46;;;;;;;13.05;6.40;;;;;;;16.43;nan;101557.91;4950259;28;20090;-69
2023/10/06 09:02:12;;;;;;;14.70;6.63;;;;;;;16.64;nan;101575.06;4966594;28;20039;-74
2023/10/06 09:04:37;;;;;;;15.73;6.22;;;;;;;16.69;nan;101568.00;4968564;28;20086;-75
2023/10/06 09:07:15;;;;;;;10.70;5.63;;;;;;;16.86;nan;101568.06;4953023;28;20030;-75
2023/10/06 09:09:42;;;;;;;15.50;5.88;;;;;;;16.99;nan;101573.09;4952146;28;20046;-73
2023/10/06 09:12:31;;;;;;;10.50;4.85;;;;;;;17.02;nan;101550.50;4950225;28;20390;-74
2023/10/06 09:14:57;;;;;;;9.63;5.03;;;;;;;17.20;nan;101562.81;4949462;28;20027;-74
2023/10/06 09:17:33;;;;;;;16.73;4.90;;;;;;;17.23;nan;101557.00;4950629;28;20030;-74
2023/10/06 09:19:59;;;;;;;11.35;4.03;;;;;;;17.35;nan;101560.41;4951834;28;20038;-73
2023/10/06 09:22:29;;;;;;;12.98;4.68;;;;;;;17.42;nan;101557.56;4950359;28;20019;-75
2023/10/06 09:25:04;;;;;;;;;;;;;;;17.65;nan;101569.94;4950614;28;20419;-73
2023/10/06 09:27:37;;;;;;;8.68;4.25;;;;;;;17.69;nan;101563.03;4951280;28;19949;-74
2023/10/06 09:30:21;;;;;;;8.50;3.90;;;;;;;17.88;nan;101570.81;4953225;28;20484;-72
2023/10/06 09:32:49;;;;;;;12.90;3.67;;;;;;;17.95;nan;101566.91;4968255;28;20031;-74
2023/10/06 09:35:19;;;;;;;11.20;3.40;;;;;;;18.04;nan;101575.31;4949768;28;20131;-74
2023/10/06 09:37:45;;;;;;;7.75;3.45;;;;;;;17.94;nan;101562.66;4952927;28;20039;-73
2023/10/06 09:40:20;;;;;;;8.68;3.55;;;;;;;18.07;nan;101580.94;4950754;28;20134;-73
2023/10/06 09:42:48;;;;;;;12.38;3.67;;;;;;;18.13;nan;101571.16;4951081;28;20089;-69
2023/10/06 09:45:17;;;;;;;10.57;3.22;;;;;;;18.15;nan;101557.56;4949621;28;20020;-70
2023/10/06 09:47:50;;;;;;;8.25;3.47;;;;;;;18.26;nan;101564.66;4953896;28;20042;-70
2023/10/06 09:50:19;;;;;;;7.65;3.30;;;;;;;18.37;nan;101563.75;4946962;28;20023;-69
2023/10/06 09:52:47;;;;;;;11.13;3.30;;;;;;;18.46;nan;101564.91;4947727;28;20047;-64
2023/10/06 09:55:17;;;;;;;9.85;3.03;;;;;;;18.65;nan;101569.91;4952116;28;20031;-66
2023/10/06 09:57:44;;;;;;;9.10;3.28;;;;;;;18.79;nan;101560.50;4950309;28;20501;-67
2023/10/06 10:00:16;;;;;;;7.18;3.28;;;;;;;18.89;nan;101555.28;4948635;28;20042;-69
2023/10/06 10:02:47;;;;;;;8.65;2.92;;;;;;;19.13;nan;101569.09;4950800;28;20073;-68
2023/10/06 10:05:20;;;;;;;11.75;3.88;;;;;;;19.15;nan;101552.81;4966684;28;20023;-69
2023/10/06 10:07:49;;;;;;;9.65;3.10;;;;;;;19.19;nan;101567.28;4949319;28;20034;-68
2023/10/06 10:10:25;;;;;;;7.47;3.45;;;;;;;19.07;nan;101534.59;4951911;28;20470;-70
2023/10/06 10:12:56;;;;;;;9.43;3.28;;;;;;;19.32;nan;101558.84;4951234;28;20027;-69
2023/10/06 10:15:58;;;;;;;8.30;3.35;;;;;;;19.36;nan;101553.78;4948159;28;20031;-69
2023/10/06 10:18:34;;;;;;;8.43;3.30;;;;;;;19.45;nan;101564.81;4871801;29;20052;-66
2023/10/06 10:21:00;;;;;;;8.65;3.20;;;;;;;19.33;nan;101536.41;4871020;29;20100;-70
2023/10/06 10:23:29;;;;;;;9.18;3.58;;;;;;;19.48;nan;101549.06;4872783;29;20488;-69
2023/10/06 10:26:22;;;;;;;8.13;3.42;;;;;;;19.61;nan;101555.03;4872448;29;20077;-69
2023/10/06 10:29:12;;;;;;;10.60;3.00;;;;;;;19.66;nan;101550.56;4871978;29;20037;-69
2023/10/06 10:31:50;;;;;;;4.95;2.70;;;;;;;19.69;nan;101536.69;4855593;29;20029;-68
2023/10/06 10:34:20;;;;;;;8.23;3.20;;;;;;;19.79;nan;101543.16;4871711;29;20036;-69
2023/10/06 10:37:12;;;;;;;18.40;3.20;;;;;;;19.74;nan;101539.41;4873118;29;20039;-68
2023/10/06 10:39:48;;;;;;;7.03;2.85;;;;;;;19.74;nan;101542.06;4868887;29;20444;-70
2023/10/06 10:42:21;;;;;;;7.60;3.30;;;;;;;19.74;nan;101527.91;4870863;29;20169;-69
2023/10/06 10:44:48;;;;;;;5.50;3.00;;;;;;;19.74;nan;101515.34;4873186;29;20025;-69
2023/10/06 10:47:15;;;;;;;10.50;2.70;;;;;;;19.69;nan;101512.66;4872618;29;20079;-68
2023/10/06 10:49:45;;;;;;;8.10;3.17;;;;;;;19.67;nan;101513.94;4873672;29;20123;-66
2023/10/06 10:52:10;;;;;;;9.55;2.90;;;;;;;19.64;nan;101509.91;4873810;29;20044;-68
2023/10/06 10:54:42;;;;;;;28.90;16.15;;;;;;;19.74;nan;101512.66;4903360;28;20039;-73
2023/10/06 10:57:14;;;;;;;21.60;9.07;;;;;;;19.84;nan;101519.13;4963718;28;20510;-73
2023/10/06 11:03:01;;;;;;;9.52;3.22;;;;;;;19.65;nan;101500.81;4950070;28;20038;-64
2023/10/06 11:05:27;;;;;;;13.65;3.08;;;;;;;19.62;nan;101496.00;4957966;28;20031;-66
2023/10/06 11:08:05;;;;;;;8.30;3.10;;;;;;;19.63;nan;101497.59;4950516;28;20027;-66
2023/10/06 11:10:32;;;;;;;7.00;2.95;;;;;;;19.71;nan;101501.72;4947745;28;20444;-64
2023/10/06 11:13:15;;;;;;;10.93;3.50;;;;;;;19.82;nan;101494.53;4952719;28;20055;-66
2023/10/06 11:15:42;;;;;;;8.38;3.00;;;;;;;19.87;nan;101486.53;4950898;28;20106;-69
2023/10/06 11:18:09;;;;;;;5.93;2.88;;;;;;;20.00;nan;101483.41;4947905;28;20385;-68
2023/10/06 11:20:41;;;;;;;9.95;3.20;;;;;;;20.11;nan;101489.56;4948267;28;20035;-68
2023/10/06 11:23:07;;;;;;;8.48;3.35;;;;;;;20.10;nan;101496.00;4948639;28;20023;-70
2023/10/06 11:25:36;;;;;;;11.00;3.15;;;;;;;20.11;nan;101476.19;4949858;28;20031;-68
2023/10/06 11:28:08;;;;;;;7.18;3.08;;;;;;;20.20;nan;101479.97;4954486;28;20493;-69
2023/10/06 11:30:36;;;;;;;8.35;2.85;;;;;;;20.08;nan;101461.47;4949169;28;20101;-68
2023/10/06 11:33:04;;;;;;;7.93;3.43;;;;;;;20.08;nan;101466.84;4949728;28;20035;-65
2023/10/06 11:35:33;;;;;;;11.75;3.38;;;;;;;20.06;nan;101458.28;4949673;28;20082;-69
2023/10/06 11:38:02;;;;;;;10.48;3.05;;;;;;;20.26;nan;101464.78;4949809;28;20027;-70
2023/10/06 11:40:30;;;;;;;6.32;3.05;;;;;;;20.38;nan;101468.81;4947811;28;20260;-67
2023/10/06 11:43:08;;;;;;;7.75;3.17;;;;;;;20.41;nan;101470.16;4947367;28;20690;-68
2023/10/06 11:45:36;;;;;;;9.13;2.92;;;;;;;20.35;nan;101461.31;4950210;28;20085;-70
2023/10/06 11:48:02;;;;;;;6.83;3.10;;;;;;;20.27;nan;101461.00;4950426;28;20031;-70
2023/10/06 11:50:32;;;;;;;6.20;2.50;;;;;;;20.37;nan;101467.19;4948257;28;20025;-70
2023/10/06 11:53:01;;;;;;;6.45;2.95;;;;;;;20.40;nan;101460.53;4951246;28;20039;-69
2023/10/06 11:55:31;;;;;;;7.63;2.92;;;;;;;20.50;nan;101457.84;4953334;28;20023;-71
2023/10/06 11:58:00;;;;;;;9.02;3.03;;;;;;;20.53;nan;101454.63;4949147;28;20035;-69
2023/10/06 12:00:43;;;;;;;11.75;3.80;;;;;;;20.56;nan;101454.13;4947237;29;20023;-69
2023/10/06 12:03:12;;;;;;;6.10;2.75;;;;;;;20.55;nan;101457.06;4945804;28;20425;-68
2023/10/06 12:05:53;;;;;;;10.93;3.15;;;;;;;20.39;nan;101440.16;4950364;28;20028;-70
2023/10/06 12:08:18;;;;;;;7.38;3.13;;;;;;;20.42;nan;101444.19;4946639;28;20023;-69
2023/10/06 12:10:50;;;;;;;5.63;2.80;;;;;;;20.58;nan;101454.66;4950174;28;20090;-69